sensor_id;sensor_type;location;lat;lon;timestamp;P1;durP1;ratioP1;P2;durP2;ratioP2
35961;SDS011;22044;48.298;10.008;2023-11-22T18:29:47;12.13;;;9.63;;
35961;SDS011;22044;48.298;10.008;2023-11-22T18:32:32;11.90;;;9.77;;
35961;SDS011;22044;48.298;10.008;2023-11-22T18:40:34;12.50;;;10.10;;
35961;SDS011;22044;48.298;10.008;2023-11-22T18:43:20;11.00;;;9.03;;
35961;SDS011;22044;48.298;10.008;2023-11-22T18:46:08;13.27;;;9.70;;
35961;SDS011;22044;48.298;10.008;2023-11-22T18:48:53;13.77;;;9.57;;
35961;SDS011;22044;48.298;10.008;2023-11-22T18:51:40;13.00;;;10.23;;
35961;SDS011;22044;48.298;10.008;2023-11-22T18:54:26;13.83;;;11.40;;
35961;SDS011;22044;48.298;10.008;2023-11-22T18:57:12;14.23;;;11.57;;
35961;SDS011;22044;48.298;10.008;2023-11-22T18:59:59;12.37;;;10.63;;
35961;SDS011;22044;48.298;10.008;2023-11-22T19:02:47;13.67;;;10.17;;
35961;SDS011;22044;48.298;10.008;2023-11-22T19:05:32;12.60;;;10.10;;
35961;SDS011;22044;48.298;10.008;2023-11-22T19:08:18;12.33;;;10.03;;
35961;SDS011;22044;48.298;10.008;2023-11-22T19:11:04;11.93;;;10.03;;
35961;SDS011;22044;48.298;10.008;2023-11-22T19:13:50;19.50;;;12.87;;
35961;SDS011;22044;48.298;10.008;2023-11-22T19:16:37;23.80;;;14.83;;
35961;SDS011;22044;48.298;10.008;2023-11-22T19:19:26;15.33;;;11.83;;
35961;SDS011;22044;48.298;10.008;2023-11-22T19:22:11;40.90;;;21.23;;
35961;SDS011;22044;48.298;10.008;2023-11-22T19:24:58;38.43;;;23.70;;
35961;SDS011;22044;48.298;10.008;2023-11-22T19:27:44;57.10;;;25.83;;
35961;SDS011;22044;48.298;10.008;2023-11-22T19:30:30;27.87;;;18.27;;
35961;SDS011;22044;48.298;10.008;2023-11-22T19:33:17;19.33;;;12.43;;
35961;SDS011;22044;48.298;10.008;2023-11-22T19:36:04;39.20;;;19.23;;
35961;SDS011;22044;48.298;10.008;2023-11-22T19:38:50;19.27;;;13.60;;
35961;SDS011;22044;48.298;10.008;2023-11-22T19:41:37;14.83;;;11.40;;
35961;SDS011;22044;48.298;10.008;2023-11-22T19:44:23;13.60;;;10.20;;
35961;SDS011;22044;48.298;10.008;2023-11-22T19:47:10;11.83;;;9.07;;
35961;SDS011;22044;48.298;10.008;2023-11-22T19:49:55;11.17;;;9.20;;
35961;SDS011;22044;48.298;10.008;2023-11-22T19:52:42;13.03;;;8.87;;
35961;SDS011;22044;48.298;10.008;2023-11-22T19:55:28;13.80;;;9.27;;
35961;SDS011;22044;48.298;10.008;2023-11-22T19:58:15;14.00;;;9.67;;
35961;SDS011;22044;48.298;10.008;2023-11-22T20:01:00;14.50;;;9.40;;
35961;SDS011;22044;48.298;10.008;2023-11-22T20:03:46;13.13;;;9.90;;
35961;SDS011;22044;48.298;10.008;2023-11-22T20:06:32;15.27;;;10.17;;
35961;SDS011;22044;48.298;10.008;2023-11-22T20:09:19;18.63;;;11.93;;
35961;SDS011;22044;48.298;10.008;2023-11-22T20:12:05;15.83;;;10.53;;
35961;SDS011;22044;48.298;10.008;2023-11-22T20:14:51;11.97;;;8.93;;
35961;SDS011;22044;48.298;10.008;2023-11-22T20:17:37;17.90;;;11.43;;
35961;SDS011;22044;48.298;10.008;2023-11-22T20:20:24;21.27;;;12.80;;
35961;SDS011;22044;48.298;10.008;2023-11-22T20:23:11;15.17;;;10.53;;
35961;SDS011;22044;48.298;10.008;2023-11-22T20:26:02;11.20;;;8.73;;
35961;SDS011;22044;48.298;10.008;2023-11-22T20:28:48;10.60;;;8.70;;
35961;SDS011;22044;48.298;10.008;2023-11-22T20:31:34;9.43;;;7.90;;
35961;SDS011;22044;48.298;10.008;2023-11-22T20:34:19;10.03;;;8.30;;
35961;SDS011;22044;48.298;10.008;2023-11-22T20:37:06;13.73;;;10.43;;
35961;SDS011;22044;48.298;10.008;2023-11-22T20:39:52;10.37;;;8.23;;
35961;SDS011;22044;48.298;10.008;2023-11-22T20:42:39;10.50;;;8.47;;
35961;SDS011;22044;48.298;10.008;2023-11-22T20:45:24;9.53;;;7.77;;
35961;SDS011;22044;48.298;10.008;2023-11-22T20:48:10;10.27;;;8.33;;
35961;SDS011;22044;48.298;10.008;2023-11-22T20:50:55;10.60;;;8.83;;
35961;SDS011;22044;48.298;10.008;2023-11-22T20:53:41;10.43;;;8.33;;
35961;SDS011;22044;48.298;10.008;2023-11-22T21:00:44;9.43;;;8.43;;
35961;SDS011;22044;48.298;10.008;2023-11-22T21:09:05;12.67;;;10.27;;
35961;SDS011;22044;48.298;10.008;2023-11-22T21:11:54;15.23;;;10.03;;
35961;SDS011;22044;48.298;10.008;2023-11-22T21:14:40;11.70;;;9.90;;
35961;SDS011;22044;48.298;10.008;2023-11-22T21:17:27;13.93;;;10.37;;
35961;SDS011;22044;48.298;10.008;2023-11-22T21:20:14;11.83;;;10.47;;
35961;SDS011;22044;48.298;10.008;2023-11-22T21:23:02;12.37;;;10.13;;
35961;SDS011;22044;48.298;10.008;2023-11-22T21:25:47;14.67;;;12.27;;
35961;SDS011;22044;48.298;10.008;2023-11-22T21:28:34;14.70;;;12.27;;
35961;SDS011;22044;48.298;10.008;2023-11-22T21:31:20;14.80;;;12.70;;
35961;SDS011;22044;48.298;10.008;2023-11-22T21:34:07;15.00;;;12.90;;
35961;SDS011;22044;48.298;10.008;2023-11-22T21:36:54;14.73;;;12.37;;
35961;SDS011;22044;48.298;10.008;2023-11-22T21:39:40;15.70;;;13.30;;
35961;SDS011;22044;48.298;10.008;2023-11-22T21:42:27;16.37;;;12.67;;
35961;SDS011;22044;48.298;10.008;2023-11-22T21:45:12;15.17;;;12.83;;
35961;SDS011;22044;48.298;10.008;2023-11-22T21:48:00;15.83;;;13.20;;
35961;SDS011;22044;48.298;10.008;2023-11-22T21:50:47;18.93;;;13.37;;
35961;SDS011;22044;48.298;10.008;2023-11-22T21:53:33;17.47;;;13.37;;
35961;SDS011;22044;48.298;10.008;2023-11-22T21:56:20;15.57;;;13.17;;
35961;SDS011;22044;48.298;10.008;2023-11-22T21:59:22;16.43;;;13.60;;
35961;SDS011;22044;48.298;10.008;2023-11-22T22:02:08;16.13;;;13.97;;
35961;SDS011;22044;48.298;10.008;2023-11-22T22:04:54;16.13;;;13.20;;
35961;SDS011;22044;48.298;10.008;2023-11-22T22:07:41;15.63;;;13.67;;
35961;SDS011;22044;48.298;10.008;2023-11-22T22:10:29;15.23;;;12.70;;
35961;SDS011;22044;48.298;10.008;2023-11-22T22:13:16;17.27;;;13.53;;
35961;SDS011;22044;48.298;10.008;2023-11-22T22:16:06;13.40;;;11.60;;
35961;SDS011;22044;48.298;10.008;2023-11-22T22:18:53;14.87;;;12.43;;
35961;SDS011;22044;48.298;10.008;2023-11-22T22:21:39;16.13;;;13.63;;
35961;SDS011;22044;48.298;10.008;2023-11-22T22:24:26;13.70;;;11.57;;
35961;SDS011;22044;48.298;10.008;2023-11-22T22:27:13;12.50;;;11.03;;
35961;SDS011;22044;48.298;10.008;2023-11-22T22:30:02;13.20;;;10.60;;
35961;SDS011;22044;48.298;10.008;2023-11-22T22:32:48;11.10;;;9.30;;
35961;SDS011;22044;48.298;10.008;2023-11-22T22:35:34;12.30;;;9.73;;
35961;SDS011;22044;48.298;10.008;2023-11-22T22:38:19;11.43;;;10.00;;
35961;SDS011;22044;48.298;10.008;2023-11-22T22:41:07;12.30;;;10.77;;
35961;SDS011;22044;48.298;10.008;2023-11-22T22:43:54;13.40;;;10.07;;
35961;SDS011;22044;48.298;10.008;2023-11-22T22:46:40;10.40;;;8.70;;
35961;SDS011;22044;48.298;10.008;2023-11-22T22:49:26;9.97;;;8.63;;
35961;SDS011;22044;48.298;10.008;2023-11-22T22:52:12;10.93;;;9.23;;
35961;SDS011;22044;48.298;10.008;2023-11-22T22:54:57;9.40;;;8.33;;
35961;SDS011;22044;48.298;10.008;2023-11-22T22:57:44;9.80;;;8.03;;
35961;SDS011;22044;48.298;10.008;2023-11-22T23:00:30;10.30;;;8.23;;
35961;SDS011;22044;48.298;10.008;2023-11-22T23:03:22;9.87;;;7.93;;
35961;SDS011;22044;48.298;10.008;2023-11-22T23:06:08;10.63;;;8.63;;
35961;SDS011;22044;48.298;10.008;2023-11-22T23:08:53;11.07;;;8.27;;
35961;SDS011;22044;48.298;10.008;2023-11-22T23:11:39;10.63;;;8.27;;
35961;SDS011;22044;48.298;10.008;2023-11-22T23:14:27;10.10;;;8.00;;
35961;SDS011;22044;48.298;10.008;2023-11-22T23:17:13;11.17;;;8.20;;
35961;SDS011;22044;48.298;10.008;2023-11-22T23:19:58;9.17;;;7.50;;
35961;SDS011;22044;48.298;10.008;2023-11-22T23:22:45;8.40;;;7.27;;
35961;SDS011;22044;48.298;10.008;2023-11-22T23:25:31;9.73;;;8.23;;
35961;SDS011;22044;48.298;10.008;2023-11-22T23:28:17;11.50;;;7.83;;
35961;SDS011;22044;48.298;10.008;2023-11-22T23:31:04;10.70;;;8.57;;
35961;SDS011;22044;48.298;10.008;2023-11-22T23:33:51;9.73;;;7.83;;
35961;SDS011;22044;48.298;10.008;2023-11-22T23:36:37;11.27;;;8.03;;
35961;SDS011;22044;48.298;10.008;2023-11-22T23:39:26;10.47;;;8.50;;
35961;SDS011;22044;48.298;10.008;2023-11-22T23:42:12;10.20;;;7.73;;
35961;SDS011;22044;48.298;10.008;2023-11-22T23:44:58;9.77;;;8.03;;
35961;SDS011;22044;48.298;10.008;2023-11-22T23:47:45;8.90;;;7.53;;
35961;SDS011;22044;48.298;10.008;2023-11-22T23:50:33;11.27;;;7.30;;
35961;SDS011;22044;48.298;10.008;2023-11-22T23:53:21;9.33;;;8.00;;
35961;SDS011;22044;48.298;10.008;2023-11-22T23:56:08;10.70;;;8.43;;
35961;SDS011;22044;48.298;10.008;2023-11-22T23:58:55;10.37;;;8.43;;
